Time;durP1;ratioP1;P1;durP2;ratioP2;P2;SDS_P1;SDS_P2;PMS_P1;PMS_P2;Temp;Humidity;BMP_temperature;BMP_pressure;BME280_temperature;BME280_humidity;BME280_pressure;Samples;Min_cycle;Max_cycle;Signal;HPM_P1;HPM_P2
2021/12/20 00:01:08;;;;;;;19.98;5.82;;;;;;;;;;5068489;28;20075;-65
2021/12/20 00:03:35;;;;;;;18.80;6.07;;;;;;;;;;5069919;28;20032;-65
2021/12/20 00:06:01;;;;;;;18.52;5.30;;;;;;;;;;5068831;28;20048;-65
2021/12/20 00:08:28;;;;;;;18.75;4.78;;;;;;;;;;5066389;28;20037;-65
2021/12/20 00:10:55;;;;;;;14.68;4.95;;;;;;;;;;5071276;28;20037;-68
2021/12/20 00:13:22;;;;;;;13.57;4.50;;;;;;;;;;5068492;28;20046;-65
2021/12/20 00:15:49;;;;;;;15.68;6.22;;;;;;;;;;5069047;28;20057;-66
2021/12/20 00:18:15;;;;;;;14.63;5.32;;;;;;;;;;5069932;28;20047;-66
2021/12/20 00:20:41;;;;;;;18.13;5.03;;;;;;;;;;5069470;28;20047;-65
2021/12/20 00:23:08;;;;;;;18.83;4.95;;;;;;;;;;5097943;28;20045;-66
2021/12/20 00:25:34;;;;;;;21.48;5.72;;;;;;;;;;5070084;28;20052;-65
2021/12/20 00:28:00;;;;;;;19.38;5.05;;;;;;;;;;5066170;28;20076;-65
2021/12/20 00:30:27;;;;;;;14.65;4.85;;;;;;;;;;5069217;28;20119;-65
2021/12/20 00:32:53;;;;;;;30.08;6.30;;;;;;;;;;5069990;28;20048;-65
2021/12/20 00:35:24;;;;;;;16.98;6.05;;;;;;;;;;5068786;28;20036;-65
2021/12/20 00:40:37;;;;;;;25.38;5.45;;;;;;;;;;5071324;28;20052;-65
2021/12/20 00:43:03;;;;;;;15.40;4.75;;;;;;;;;;5068600;28;20127;-65
2021/12/20 00:45:31;;;;;;;19.08;5.10;;;;;;;;;;5066214;28;20072;-65
2021/12/20 00:47:57;;;;;;;14.57;4.20;;;;;;;;;;5071476;28;20405;-65
2021/12/20 00:50:24;;;;;;;22.95;5.05;;;;;;;;;;5067027;28;20124;-66
2021/12/20 00:52:50;;;;;;;17.45;5.07;;;;;;;;;;5069579;28;20041;-65
2021/12/20 00:55:18;;;;;;;18.73;5.03;;;;;;;;;;5067498;28;20075;-65
2021/12/20 00:57:48;;;;;;;19.15;4.82;;;;;;;;;;5068473;28;20112;-65
2021/12/20 01:00:15;;;;;;;11.85;4.28;;;;;;;;;;5070079;28;20495;-65
2021/12/20 01:02:41;;;;;;;15.88;4.13;;;;;;;;;;5065365;28;20041;-66
2021/12/20 01:05:08;;;;;;;16.67;4.25;;;;;;;;;;5064629;28;20486;-65
2021/12/20 01:07:34;;;;;;;12.90;4.65;;;;;;;;;;5069156;28;20041;-65
2021/12/20 01:10:04;;;;;;;9.20;3.75;;;;;;;;;;5068947;28;20067;-65
2021/12/20 01:12:40;;;;;;;25.95;4.57;;;;;;;;;;5068893;28;20040;-65
2021/12/20 01:15:07;;;;;;;25.73;4.95;;;;;;;;;;5069146;28;20040;-65
2021/12/20 01:17:33;;;;;;;16.75;3.67;;;;;;;;;;5071934;28;20033;-65
2021/12/20 01:19:59;;;;;;;13.10;3.97;;;;;;;;;;5083702;28;20090;-66
2021/12/20 01:22:25;;;;;;;13.30;4.13;;;;;;;;;;5069074;28;20033;-65
2021/12/20 01:24:51;;;;;;;16.25;4.97;;;;;;;;;;5066946;28;20093;-65
2021/12/20 01:27:17;;;;;;;10.50;3.97;;;;;;;;;;5067802;28;20066;-65
2021/12/20 01:29:44;;;;;;;13.60;4.47;;;;;;;;;;5055123;28;20130;-65
2021/12/20 01:32:10;;;;;;;10.65;3.78;;;;;;;;;;5066987;28;20041;-65
2021/12/20 01:34:36;;;;;;;15.05;4.50;;;;;;;;;;5065434;28;20040;-65
2021/12/20 01:37:02;;;;;;;22.60;4.35;;;;;;;;;;5087551;28;20414;-65
2021/12/20 01:39:28;;;;;;;16.63;4.50;;;;;;;;;;5096340;28;20056;-65
2021/12/20 01:41:55;;;;;;;10.85;3.75;;;;;;;;;;5059151;28;20040;-65
2021/12/20 01:44:21;;;;;;;14.40;3.83;;;;;;;;;;5069366;28;20052;-65
2021/12/20 01:46:48;;;;;;;8.95;3.20;;;;;;;;;;5065907;28;20047;-65
2021/12/20 01:49:16;;;;;;;11.23;3.60;;;;;;;;;;5056875;28;20060;-65
2021/12/20 01:52:11;;;;;;;11.95;3.47;;;;;;;;;;5061353;28;20055;-65
2021/12/20 01:54:31;;;;;;;7.35;2.80;;;;;;;;;;5065635;28;20044;-65
2021/12/20 01:56:57;;;;;;;10.77;2.70;;;;;;;;;;5066653;28;20041;-65
2021/12/20 01:59:24;;;;;;;11.48;3.75;;;;;;;;;;5068739;28;20040;-65
2021/12/20 02:01:51;;;;;;;10.05;2.70;;;;;;;;;;5064537;28;20044;-67
2021/12/20 02:04:19;;;;;;;8.52;2.67;;;;;;;;;;5058357;28;20505;-65
2021/12/20 02:06:47;;;;;;;11.25;3.22;;;;;;;;;;5069751;28;20040;-65
2021/12/20 02:09:18;;;;;;;11.55;3.63;;;;;;;;;;5065969;28;20210;-65
2021/12/20 02:11:49;;;;;;;13.15;3.13;;;;;;;;;;5067215;28;20040;-65
2021/12/20 02:14:15;;;;;;;6.40;2.53;;;;;;;;;;5068150;28;20043;-65
2021/12/20 02:16:42;;;;;;;10.00;2.83;;;;;;;;;;5065134;28;20124;-65
2021/12/20 02:19:10;;;;;;;8.43;2.63;;;;;;;;;;5101547;28;20098;-65
2021/12/20 02:21:36;;;;;;;8.40;2.60;;;;;;;;;;5065232;28;20504;-65
2021/12/20 02:24:02;;;;;;;6.15;2.13;;;;;;;;;;5064774;28;20119;-65
2021/12/20 02:26:28;;;;;;;6.13;2.63;;;;;;;;;;5083485;28;20041;-65
2021/12/20 02:28:58;;;;;;;11.77;2.47;;;;;;;;;;5060851;28;20039;-65
2021/12/20 02:37:18;;;;;;;7.47;2.00;;;;;;;;;;5109400;27;20043;-65
2021/12/20 02:39:44;;;;;;;9.90;2.45;;;;;;;;;;5065189;28;20524;-65
2021/12/20 02:42:14;;;;;;;5.07;2.30;;;;;;;;;;5066713;28;20123;-65
2021/12/20 02:44:48;;;;;;;11.57;2.95;;;;;;;;;;5065755;28;20116;-65
2021/12/20 02:47:26;;;;;;;8.65;2.47;;;;;;;;;;5067253;28;20044;-65
2021/12/20 02:49:52;;;;;;;9.50;2.70;;;;;;;;;;5066760;28;20044;-65
2021/12/20 02:52:18;;;;;;;14.20;2.35;;;;;;;;;;5058188;28;20033;-66
2021/12/20 02:54:44;;;;;;;5.32;2.55;;;;;;;;;;5066928;28;20046;-65
2021/12/20 02:57:11;;;;;;;7.15;1.88;;;;;;;;;;5067952;28;20036;-65
2021/12/20 02:59:37;;;;;;;7.25;2.22;;;;;;;;;;5068117;28;20098;-65
2021/12/20 03:02:05;;;;;;;12.23;2.50;;;;;;;;;;5064830;28;20044;-65
2021/12/20 03:04:31;;;;;;;6.32;2.10;;;;;;;;;;5066396;28;20107;-65
2021/12/20 03:07:00;;;;;;;6.30;2.40;;;;;;;;;;5067101;28;20037;-65
2021/12/20 03:09:30;;;;;;;14.23;2.63;;;;;;;;;;5065692;28;20060;-66
2021/12/20 03:11:58;;;;;;;16.17;2.78;;;;;;;;;;5066932;28;20039;-66
2021/12/20 03:14:29;;;;;;;10.40;2.20;;;;;;;;;;5068341;28;20123;-65
2021/12/20 03:16:56;;;;;;;19.02;3.95;;;;;;;;;;5095351;28;20055;-65
2021/12/20 03:19:22;;;;;;;8.35;2.55;;;;;;;;;;5061896;28;20494;-65
2021/12/20 03:21:49;;;;;;;8.25;2.70;;;;;;;;;;5068909;28;20505;-66
2021/12/20 03:24:15;;;;;;;6.78;2.30;;;;;;;;;;5061824;28;20490;-65
2021/12/20 03:26:41;;;;;;;7.68;3.03;;;;;;;;;;5067626;28;20040;-65
2021/12/20 03:29:07;;;;;;;7.32;2.33;;;;;;;;;;5066016;28;20044;-65
2021/12/20 03:31:34;;;;;;;6.72;1.98;;;;;;;;;;5063425;28;20552;-65
2021/12/20 03:34:01;;;;;;;5.30;1.80;;;;;;;;;;5064997;28;23922;-65
2021/12/20 03:36:27;;;;;;;5.25;2.13;;;;;;;;;;5067205;28;20075;-65
2021/12/20 03:38:53;;;;;;;5.57;2.17;;;;;;;;;;5066402;28;20437;-65
2021/12/20 03:41:20;;;;;;;8.35;2.47;;;;;;;;;;5039564;28;20119;-65
2021/12/20 03:43:46;;;;;;;7.45;2.20;;;;;;;;;;5067519;28;20494;-65
2021/12/20 03:46:12;;;;;;;8.48;2.13;;;;;;;;;;5064764;28;20128;-65
2021/12/20 03:48:39;;;;;;;5.50;1.83;;;;;;;;;;5066420;28;20102;-65
2021/12/20 03:51:05;;;;;;;8.65;2.35;;;;;;;;;;5067314;28;20036;-66
2021/12/20 03:53:33;;;;;;;7.30;1.95;;;;;;;;;;5068353;28;20098;-66
2021/12/20 03:55:59;;;;;;;10.73;1.60;;;;;;;;;;5051708;28;20517;-65
2021/12/20 03:58:27;;;;;;;7.93;2.13;;;;;;;;;;5066908;28;20096;-65
2021/12/20 04:00:55;;;;;;;7.47;2.55;;;;;;;;;;5067401;28;20071;-65
2021/12/20 04:03:21;;;;;;;7.15;2.03;;;;;;;;;;5066542;28;20142;-65
2021/12/20 04:05:47;;;;;;;9.15;1.95;;;;;;;;;;5069975;28;20093;-65
2021/12/20 04:08:13;;;;;;;10.80;2.05;;;;;;;;;;5070357;28;20033;-65
2021/12/20 04:10:39;;;;;;;5.30;2.15;;;;;;;;;;5069859;28;20032;-65
2021/12/20 04:13:05;;;;;;;6.18;2.13;;;;;;;;;;5068137;28;20037;-65
2021/12/20 04:15:32;;;;;;;8.00;2.88;;;;;;;;;;5068262;28;20048;-65
2021/12/20 04:17:59;;;;;;;10.93;2.35;;;;;;;;;;5036995;28;20054;-67
2021/12/20 04:20:26;;;;;;;13.18;2.83;;;;;;;;;;5067917;28;20041;-65
2021/12/20 04:22:52;;;;;;;9.57;2.42;;;;;;;;;;5077495;28;20048;-65
2021/12/20 04:25:18;;;;;;;7.82;1.70;;;;;;;;;;5070133;28;20376;-65
2021/12/20 04:27:44;;;;;;;6.13;1.73;;;;;;;;;;5051640;28;20049;-65
2021/12/20 04:30:11;;;;;;;7.20;2.20;;;;;;;;;;5069150;28;20055;-65
2021/12/20 04:32:44;;;;;;;6.75;1.88;;;;;;;;;;5102163;27;20123;-65
2021/12/20 04:35:10;;;;;;;;;;;;;;;;;;5094154;28;20044;-65
2021/12/20 04:37:36;;;;;;;9.20;1.77;;;;;;;;;;5080421;28;19921;-65
2021/12/20 04:40:07;;;;;;;9.30;1.60;;;;;;;;;;5071089;28;20064;-65
2021/12/20 04:42:33;;;;;;;4.88;1.55;;;;;;;;;;5067186;28;20036;-65
2021/12/20 04:44:59;;;;;;;3.45;1.48;;;;;;;;;;5101526;27;20116;-65
2021/12/20 04:47:26;;;;;;;6.15;1.88;;;;;;;;;;5066473;28;20068;-65
2021/12/20 04:49:52;;;;;;;8.60;2.15;;;;;;;;;;5069047;28;20086;-65
2021/12/20 04:52:18;;;;;;;6.53;1.85;;;;;;;;;;5071213;28;20046;-65
2021/12/20 04:54:44;;;;;;;5.13;1.70;;;;;;;;;;5067482;28;20397;-65
2021/12/20 04:57:11;;;;;;;4.82;1.52;;;;;;;;;;5064881;28;20131;-65
2021/12/20 04:59:37;;;;;;;3.70;1.50;;;;;;;;;;5071714;28;20040;-65
2021/12/20 05:02:03;;;;;;;4.20;1.73;;;;;;;;;;5049571;28;20468;-65
2021/12/20 05:04:29;;;;;;;3.65;1.55;;;;;;;;;;5053321;28;20390;-65
2021/12/20 05:06:55;;;;;;;6.65;2.42;;;;;;;;;;5068350;28;20115;-65
2021/12/20 05:09:25;;;;;;;5.82;2.25;;;;;;;;;;5065904;28;20036;-66
2021/12/20 05:12:00;;;;;;;14.45;2.20;;;;;;;;;;5067853;28;20037;-65
2021/12/20 05:14:26;;;;;;;4.13;1.23;;;;;;;;;;5068589;28;20076;-65
2021/12/20 05:16:52;;;;;;;2.88;1.58;;;;;;;;;;5066097;28;20493;-65
2021/12/20 05:19:19;;;;;;;11.00;2.00;;;;;;;;;;5068905;28;20108;-65
2021/12/20 05:27:36;;;;;;;8.65;2.28;;;;;;;;;;5059886;28;20257;-65
2021/12/20 05:30:04;;;;;;;4.80;1.75;;;;;;;;;;5062241;28;20032;-65
2021/12/20 05:32:30;;;;;;;8.02;1.90;;;;;;;;;;5061008;28;20129;-65
2021/12/20 05:34:56;;;;;;;9.68;2.13;;;;;;;;;;5068570;28;20037;-65
2021/12/20 05:37:23;;;;;;;5.50;1.90;;;;;;;;;;5067941;28;20055;-65
2021/12/20 05:39:49;;;;;;;9.07;2.42;;;;;;;;;;5068064;28;20514;-65
2021/12/20 05:42:16;;;;;;;22.58;2.42;;;;;;;;;;5067629;28;20067;-66
2021/12/20 05:44:42;;;;;;;4.72;2.08;;;;;;;;;;5064501;28;20050;-65
2021/12/20 05:47:08;;;;;;;9.60;3.10;;;;;;;;;;5069315;28;20320;-65
2021/12/20 05:49:34;;;;;;;7.30;1.80;;;;;;;;;;5068971;28;20051;-65
2021/12/20 05:52:04;;;;;;;7.93;2.13;;;;;;;;;;5065575;28;20047;-65
2021/12/20 05:54:31;;;;;;;10.80;2.33;;;;;;;;;;5056996;28;20041;-65
2021/12/20 05:56:57;;;;;;;6.13;2.25;;;;;;;;;;5060903;28;20040;-65
2021/12/20 05:59:23;;;;;;;5.10;1.63;;;;;;;;;;5062991;28;20036;-65
2021/12/20 06:01:49;;;;;;;7.10;2.38;;;;;;;;;;5065404;28;20127;-65
2021/12/20 06:04:15;;;;;;;6.05;2.15;;;;;;;;;;5068063;28;20405;-65
2021/12/20 06:06:42;;;;;;;12.38;2.58;;;;;;;;;;5063868;28;20135;-65
2021/12/20 06:09:08;;;;;;;7.55;1.58;;;;;;;;;;5068127;28;20036;-65
2021/12/20 06:11:34;;;;;;;6.63;1.63;;;;;;;;;;5067674;28;20047;-65
2021/12/20 06:14:00;;;;;;;4.60;2.40;;;;;;;;;;5062642;28;20190;-65
2021/12/20 06:16:26;;;;;;;6.28;1.77;;;;;;;;;;5067702;28;20151;-65
2021/12/20 06:18:53;;;;;;;6.15;2.00;;;;;;;;;;5068091;28;20564;-66
2021/12/20 06:21:19;;;;;;;5.25;2.88;;;;;;;;;;5066164;28;20093;-65
2021/12/20 06:23:45;;;;;;;7.38;2.00;;;;;;;;;;5064935;28;20471;-65
2021/12/20 06:26:12;;;;;;;11.15;2.85;;;;;;;;;;5049672;28;20609;-65
2021/12/20 06:28:38;;;;;;;4.50;1.80;;;;;;;;;;5070223;28;20179;-65
2021/12/20 06:31:04;;;;;;;8.20;2.50;;;;;;;;;;5062773;28;20494;-65
2021/12/20 06:33:30;;;;;;;6.78;2.22;;;;;;;;;;5057959;28;20691;-65
2021/12/20 06:35:56;;;;;;;7.35;2.28;;;;;;;;;;5088028;28;20139;-65
2021/12/20 06:38:22;;;;;;;10.07;2.22;;;;;;;;;;5039692;28;20063;-65
2021/12/20 06:40:50;;;;;;;14.13;3.17;;;;;;;;;;5092517;28;20421;-65
2021/12/20 06:43:17;;;;;;;5.72;2.55;;;;;;;;;;5058419;28;20044;-65
2021/12/20 06:45:43;;;;;;;16.92;3.13;;;;;;;;;;5062284;28;20041;-66
2021/12/20 06:48:09;;;;;;;5.85;2.15;;;;;;;;;;5064040;28;20052;-65
2021/12/20 06:50:35;;;;;;;6.63;2.78;;;;;;;;;;5072741;28;20041;-65
2021/12/20 06:53:03;;;;;;;12.70;2.53;;;;;;;;;;5069304;28;20037;-67
2021/12/20 06:55:29;;;;;;;9.45;2.28;;;;;;;;;;5094692;28;20044;-67
2021/12/20 06:57:55;;;;;;;9.35;2.33;;;;;;;;;;5066938;28;20048;-67
2021/12/20 07:00:23;;;;;;;9.57;2.58;;;;;;;;;;5063515;28;20460;-67
2021/12/20 07:02:49;;;;;;;7.60;2.13;;;;;;;;;;5065313;28;20040;-67
2021/12/20 07:05:17;;;;;;;8.25;2.15;;;;;;;;;;5065809;28;20036;-67
2021/12/20 07:07:43;;;;;;;6.25;2.15;;;;;;;;;;5064728;28;20119;-67
2021/12/20 07:10:09;;;;;;;8.32;2.47;;;;;;;;;;5060215;28;20071;-67
2021/12/20 07:12:37;;;;;;;6.85;2.30;;;;;;;;;;5099274;28;20028;-67
2021/12/20 07:15:04;;;;;;;6.70;2.40;;;;;;;;;;5044768;28;20072;-67
2021/12/20 07:17:31;;;;;;;12.07;2.70;;;;;;;;;;5064750;28;21153;-65
2021/12/20 07:20:00;;;;;;;6.50;2.20;;;;;;;;;;5060998;28;20051;-65
2021/12/20 07:22:26;;;;;;;8.50;2.40;;;;;;;;;;5057901;28;20486;-65
2021/12/20 07:24:53;;;;;;;7.85;2.25;;;;;;;;;;5048103;28;20028;-65
2021/12/20 07:27:19;;;;;;;10.90;2.10;;;;;;;;;;5066235;28;20494;-65
2021/12/20 07:29:45;;;;;;;7.60;2.90;;;;;;;;;;5065181;28;20036;-65
2021/12/20 07:32:12;;;;;;;9.38;3.20;;;;;;;;;;5066865;28;20075;-65
2021/12/20 07:34:38;;;;;;;6.25;2.30;;;;;;;;;;5064331;28;20123;-67
2021/12/20 07:37:06;;;;;;;8.80;2.90;;;;;;;;;;5072348;28;20530;-67
2021/12/20 07:39:32;;;;;;;4.63;2.03;;;;;;;;;;5066715;28;20090;-67
2021/12/20 07:41:59;;;;;;;9.30;2.90;;;;;;;;;;5066689;28;20036;-65
2021/12/20 07:44:25;;;;;;;9.10;2.58;;;;;;;;;;5070448;28;20040;-65
2021/12/20 07:46:52;;;;;;;7.53;2.80;;;;;;;;;;5071370;28;20052;-68
2021/12/20 07:49:18;;;;;;;11.45;3.35;;;;;;;;;;5068506;28;20032;-65
2021/12/20 07:51:44;;;;;;;10.40;2.10;;;;;;;;;;5065339;28;20044;-65
2021/12/20 07:54:10;;;;;;;7.03;2.90;;;;;;;;;;5062863;28;20052;-65
2021/12/20 07:56:37;;;;;;;9.65;2.22;;;;;;;;;;5062238;28;20079;-65
2021/12/20 07:59:03;;;;;;;9.60;2.50;;;;;;;;;;5045168;28;20263;-65
2021/12/20 08:01:31;;;;;;;8.07;2.42;;;;;;;;;;5065073;28;20489;-65
2021/12/20 08:03:57;;;;;;;9.57;2.50;;;;;;;;;;5053748;28;20059;-65
2021/12/20 08:06:24;;;;;;;6.55;2.78;;;;;;;;;;5061297;28;20033;-68
2021/12/20 08:08:50;;;;;;;8.27;3.00;;;;;;;;;;5096168;28;20044;-67
2021/12/20 08:11:16;;;;;;;7.53;2.45;;;;;;;;;;5055880;28;20087;-65
2021/12/20 08:13:45;;;;;;;11.73;3.15;;;;;;;;;;5064571;28;20037;-65
2021/12/20 08:16:15;;;;;;;5.93;2.38;;;;;;;;;;5089924;27;20367;-65
2021/12/20 08:18:42;;;;;;;4.70;2.08;;;;;;;;;;5063674;28;20067;-65
2021/12/20 08:21:09;;;;;;;9.57;3.33;;;;;;;;;;5062553;28;20037;-65
2021/12/20 08:23:35;;;;;;;6.05;2.25;;;;;;;;;;5063084;28;20127;-65
2021/12/20 08:26:01;;;;;;;10.05;3.55;;;;;;;;;;5062683;28;20040;-66
2021/12/20 08:28:27;;;;;;;4.80;1.90;;;;;;;;;;5090318;28;20098;-65
2021/12/20 08:30:54;;;;;;;8.10;2.60;;;;;;;;;;5064225;28;20036;-65
2021/12/20 08:33:20;;;;;;;4.55;1.95;;;;;;;;;;5093027;27;20044;-65
2021/12/20 08:35:49;;;;;;;6.63;3.05;;;;;;;;;;5062593;28;20048;-65
2021/12/20 08:38:19;;;;;;;4.85;2.70;;;;;;;;;;5054397;28;20822;-65
2021/12/20 08:40:45;;;;;;;7.95;3.50;;;;;;;;;;5062041;28;20102;-66
2021/12/20 08:43:11;;;;;;;7.30;2.45;;;;;;;;;;5093469;27;20041;-65
2021/12/20 08:45:37;;;;;;;9.52;2.85;;;;;;;;;;5064063;28;20135;-66
2021/12/20 08:48:03;;;;;;;6.60;3.00;;;;;;;;;;5092909;27;20072;-65
2021/12/20 08:50:30;;;;;;;8.32;3.33;;;;;;;;;;5056639;28;20581;-66
2021/12/20 08:52:56;;;;;;;9.95;3.50;;;;;;;;;;5057659;28;20174;-65
2021/12/20 08:55:23;;;;;;;7.15;2.83;;;;;;;;;;5064176;28;20079;-65
2021/12/20 08:57:49;;;;;;;12.27;4.22;;;;;;;;;;5054606;28;20051;-65
2021/12/20 09:00:17;;;;;;;7.65;3.88;;;;;;;;;;5095584;27;20076;-65
2021/12/20 09:02:43;;;;;;;9.70;3.33;;;;;;;;;;5064267;28;20494;-65
2021/12/20 09:05:10;;;;;;;9.32;3.80;;;;;;;;;;5063755;28;20036;-65
2021/12/20 09:07:37;;;;;;;10.57;3.80;;;;;;;;;;5064613;28;20039;-65
2021/12/20 09:10:03;;;;;;;13.43;3.92;;;;;;;;;;5060943;28;20631;-65
2021/12/20 09:12:30;;;;;;;9.48;3.47;;;;;;;;;;5064024;28;20102;-65
2021/12/20 09:14:56;;;;;;;9.63;3.85;;;;;;;;;;5090242;28;20044;-65
2021/12/20 09:17:22;;;;;;;7.25;3.72;;;;;;;;;;5064858;28;20048;-65
2021/12/20 09:19:48;;;;;;;10.73;4.32;;;;;;;;;;5080500;28;20040;-65
2021/12/20 09:22:14;;;;;;;12.18;4.40;;;;;;;;;;5043638;28;20084;-65
2021/12/20 09:24:41;;;;;;;12.35;4.38;;;;;;;;;;5061589;28;20135;-65
2021/12/20 09:27:08;;;;;;;17.17;4.93;;;;;;;;;;5092203;28;20045;-66
2021/12/20 09:29:35;;;;;;;11.90;4.32;;;;;;;;;;5064710;28;20558;-65
2021/12/20 09:32:01;;;;;;;12.80;3.75;;;;;;;;;;5064375;28;20088;-68
2021/12/20 09:34:28;;;;;;;10.57;4.53;;;;;;;;;;5062848;28;20565;-67
2021/12/20 09:36:55;;;;;;;17.52;3.75;;;;;;;;;;5058559;28;20071;-67
2021/12/20 09:39:22;;;;;;;16.38;3.97;;;;;;;;;;5066460;28;20036;-65
2021/12/20 09:44:15;;;;;;;12.73;4.15;;;;;;;;;;5062627;28;20048;-65
2021/12/20 09:46:42;;;;;;;16.55;5.43;;;;;;;;;;5064159;28;20406;-65
2021/12/20 09:49:09;;;;;;;11.40;4.60;;;;;;;;;;5062064;28;20032;-65
2021/12/20 09:51:36;;;;;;;16.08;4.90;;;;;;;;;;5063035;28;20040;-66
2021/12/20 09:54:02;;;;;;;20.77;5.35;;;;;;;;;;5095599;28;20531;-66
2021/12/20 09:56:29;;;;;;;14.35;5.03;;;;;;;;;;5061070;28;20648;-65
2021/12/20 09:58:57;;;;;;;13.50;4.60;;;;;;;;;;5064832;28;20044;-64
2021/12/20 10:01:24;;;;;;;23.02;5.05;;;;;;;;;;5054817;28;20097;-65
2021/12/20 10:03:52;;;;;;;11.73;4.22;;;;;;;;;;5059250;28;20080;-64
2021/12/20 10:06:18;;;;;;;9.98;4.47;;;;;;;;;;5093177;27;20143;-65
2021/12/20 10:08:52;;;;;;;7.68;3.65;;;;;;;;;;5059788;28;20044;-65
2021/12/20 10:11:29;;;;;;;13.30;4.57;;;;;;;;;;5066750;28;20105;-65
2021/12/20 10:14:27;;;;;;;11.40;3.70;;;;;;;;;;5063266;28;20458;-65
2021/12/20 10:17:03;;;;;;;12.40;4.60;;;;;;;;;;5054134;28;20094;-65
2021/12/20 10:19:30;;;;;;;12.05;3.88;;;;;;;;;;5045604;28;20067;-65
2021/12/20 10:21:58;;;;;;;18.23;4.68;;;;;;;;;;5063811;28;20080;-65
2021/12/20 10:24:30;;;;;;;13.90;4.22;;;;;;;;;;5062602;28;20125;-65
2021/12/20 10:26:57;;;;;;;10.88;4.40;;;;;;;;;;5063768;28;20485;-65
2021/12/20 10:29:23;;;;;;;20.85;5.05;;;;;;;;;;5061683;28;20040;-65
2021/12/20 10:31:50;;;;;;;14.43;4.53;;;;;;;;;;5065506;28;20063;-66
2021/12/20 10:34:19;;;;;;;19.58;4.45;;;;;;;;;;5065165;28;20048;-65
2021/12/20 10:36:56;;;;;;;16.25;4.28;;;;;;;;;;5093739;27;20045;-65
2021/12/20 10:39:53;;;;;;;19.25;5.10;;;;;;;;;;5059068;28;20056;-65
2021/12/20 10:42:29;;;;;;;12.48;4.05;;;;;;;;;;5056684;28;20049;-65
2021/12/20 10:45:13;;;;;;;9.30;3.85;;;;;;;;;;5060924;28;20486;-66
2021/12/20 10:47:40;;;;;;;19.83;3.95;;;;;;;;;;5060869;28;20050;-65
2021/12/20 10:50:25;;;;;;;13.88;5.05;;;;;;;;;;5058696;28;20033;-65
2021/12/20 10:52:51;;;;;;;15.38;4.40;;;;;;;;;;5056262;28;20045;-65
2021/12/20 10:55:37;;;;;;;18.85;5.75;;;;;;;;;;5087087;27;20517;-66
2021/12/20 10:58:28;;;;;;;12.60;4.82;;;;;;;;;;5058134;28;20037;-65
2021/12/20 11:04:04;;;;;;;17.53;4.63;;;;;;;;;;5049845;28;20124;-65
2021/12/20 11:09:18;;;;;;;20.70;4.32;;;;;;;;;;5063998;28;20044;-65
2021/12/20 11:11:49;;;;;;;13.02;4.45;;;;;;;;;;5066675;28;20040;-66
2021/12/20 11:14:17;;;;;;;13.68;5.07;;;;;;;;;;5066390;28;20113;-65
2021/12/20 11:16:49;;;;;;;12.38;5.38;;;;;;;;;;5064310;28;20121;-65
2021/12/20 11:19:15;;;;;;;14.67;4.90;;;;;;;;;;5066684;28;20040;-65
2021/12/20 11:21:49;;;;;;;25.38;5.22;;;;;;;;;;5067544;28;20036;-65
2021/12/20 11:24:20;;;;;;;17.10;5.40;;;;;;;;;;5063017;28;20048;-65
2021/12/20 11:26:46;;;;;;;18.95;5.93;;;;;;;;;;5058842;28;20101;-65
2021/12/20 11:29:12;;;;;;;17.75;5.07;;;;;;;;;;5067010;28;20040;-66
2021/12/20 11:31:39;;;;;;;19.90;5.90;;;;;;;;;;5062579;28;20044;-66
2021/12/20 11:34:05;;;;;;;21.65;5.68;;;;;;;;;;5063335;28;20119;-66
2021/12/20 11:36:32;;;;;;;21.15;5.25;;;;;;;;;;5063278;28;20060;-66
2021/12/20 11:38:59;;;;;;;13.98;5.13;;;;;;;;;;5060193;28;20106;-66
2021/12/20 11:41:28;;;;;;;12.27;5.22;;;;;;;;;;5069989;28;20066;-66
2021/12/20 11:43:55;;;;;;;15.32;6.13;;;;;;;;;;5065858;28;20055;-66
2021/12/20 11:46:24;;;;;;;10.52;4.40;;;;;;;;;;5066585;28;20486;-66
2021/12/20 11:48:53;;;;;;;15.10;6.15;;;;;;;;;;5050077;28;20053;-66
2021/12/20 11:51:19;;;;;;;13.38;3.88;;;;;;;;;;5067689;28;20040;-66
2021/12/20 11:53:45;;;;;;;14.85;5.38;;;;;;;;;;5062466;28;20513;-66
2021/12/20 11:56:11;;;;;;;15.27;5.10;;;;;;;;;;5067450;28;20358;-66
2021/12/20 11:58:45;;;;;;;12.57;4.72;;;;;;;;;;5090487;27;20188;-66
2021/12/20 12:01:19;;;;;;;11.30;4.25;;;;;;;;;;5062691;28;20741;-66
2021/12/20 12:03:56;;;;;;;11.00;4.93;;;;;;;;;;5064107;28;20049;-66
2021/12/20 12:06:33;;;;;;;11.40;3.80;;;;;;;;;;5065382;28;20055;-66
2021/12/20 12:08:59;;;;;;;12.63;4.75;;;;;;;;;;5057294;28;20052;-66
2021/12/20 12:11:25;;;;;;;7.45;3.83;;;;;;;;;;5068787;28;20070;-66
2021/12/20 12:14:05;;;;;;;17.55;5.00;;;;;;;;;;5062627;28;20068;-66
2021/12/20 12:17:02;;;;;;;13.07;4.18;;;;;;;;;;5068242;28;20076;-66
2021/12/20 12:19:41;;;;;;;10.00;4.30;;;;;;;;;;5064508;28;20393;-66
2021/12/20 12:22:26;;;;;;;18.35;4.70;;;;;;;;;;5064298;28;20051;-66
2021/12/20 12:24:52;;;;;;;14.05;4.10;;;;;;;;;;5066916;28;20040;-67
2021/12/20 12:27:22;;;;;;;10.20;4.30;;;;;;;;;;5067096;28;20044;-67
2021/12/20 12:30:23;;;;;;;11.57;4.35;;;;;;;;;;5061357;28;20048;-67
2021/12/20 12:32:49;;;;;;;11.07;5.05;;;;;;;;;;5054640;28;20434;-67
2021/12/20 12:35:34;;;;;;;14.48;4.53;;;;;;;;;;5066867;28;20055;-67
2021/12/20 12:38:20;;;;;;;15.23;4.40;;;;;;;;;;5059242;28;20064;-67
2021/12/20 12:41:05;;;;;;;14.40;4.60;;;;;;;;;;5053266;28;20071;-67
2021/12/20 12:43:47;;;;;;;11.30;4.35;;;;;;;;;;5067654;28;20033;-67
2021/12/20 12:46:13;;;;;;;10.23;4.43;;;;;;;;;;5058907;28;20140;-67
2021/12/20 12:48:41;;;;;;;17.60;5.28;;;;;;;;;;5065009;28;20055;-67
2021/12/20 12:51:19;;;;;;;11.60;5.07;;;;;;;;;;5066798;28;20036;-66
2021/12/20 12:53:49;;;;;;;7.22;3.30;;;;;;;;;;5063435;28;20098;-66
2021/12/20 12:56:41;;;;;;;11.73;5.03;;;;;;;;;;5065425;28;20043;-67
2021/12/20 12:59:14;;;;;;;11.07;4.82;;;;;;;;;;5055849;28;20137;-66
2021/12/20 13:01:52;;;;;;;8.25;4.13;;;;;;;;;;5062513;28;20076;-67
2021/12/20 13:04:19;;;;;;;7.13;4.10;;;;;;;;;;5060899;28;20537;-66
2021/12/20 13:06:46;;;;;;;12.50;4.18;;;;;;;;;;5066071;28;20033;-66
2021/12/20 13:09:12;;;;;;;18.08;5.68;;;;;;;;;;5066425;28;20055;-66
2021/12/20 13:11:38;;;;;;;12.50;4.57;;;;;;;;;;5067424;28;20263;-66
2021/12/20 13:14:12;;;;;;;9.57;4.13;;;;;;;;;;5070075;28;20040;-65
2021/12/20 13:16:43;;;;;;;11.77;4.22;;;;;;;;;;5065395;28;20127;-65
2021/12/20 13:19:10;;;;;;;15.55;4.82;;;;;;;;;;5065541;28;20473;-66
2021/12/20 13:21:54;;;;;;;11.98;4.35;;;;;;;;;;5063487;28;20067;-66
2021/12/20 13:24:20;;;;;;;13.85;4.68;;;;;;;;;;5068938;28;20075;-65
2021/12/20 13:26:47;;;;;;;10.32;3.55;;;;;;;;;;5068482;28;20042;-66
2021/12/20 13:29:16;;;;;;;15.00;3.97;;;;;;;;;;5061085;28;20120;-66
2021/12/20 13:31:43;;;;;;;17.52;4.13;;;;;;;;;;5094240;28;20032;-66
2021/12/20 13:34:14;;;;;;;14.43;4.85;;;;;;;;;;5062859;28;20078;-66
2021/12/20 13:36:50;;;;;;;13.63;4.68;;;;;;;;;;5067619;28;20052;-66
2021/12/20 13:39:16;;;;;;;12.32;5.68;;;;;;;;;;5065812;28;20053;-66
2021/12/20 13:41:42;;;;;;;14.35;5.07;;;;;;;;;;5060687;28;20125;-66
2021/12/20 13:44:12;;;;;;;14.80;4.20;;;;;;;;;;5099711;27;20095;-67
2021/12/20 13:49:10;;;;;;;10.50;4.35;;;;;;;;;;5066366;28;20054;-66
2021/12/20 13:51:56;;;;;;;17.02;5.85;;;;;;;;;;5070531;28;20645;-66
2021/12/20 13:54:22;;;;;;;11.90;4.38;;;;;;;;;;5063792;28;20068;-66
2021/12/20 13:56:51;;;;;;;9.15;4.35;;;;;;;;;;5064402;28;20036;-67
2021/12/20 13:59:22;;;;;;;10.30;4.28;;;;;;;;;;5066522;28;20040;-66
2021/12/20 14:01:48;;;;;;;6.88;3.63;;;;;;;;;;5063767;28;20036;-66
2021/12/20 14:04:35;;;;;;;16.00;5.50;;;;;;;;;;5066563;28;20473;-66
2021/12/20 14:07:02;;;;;;;7.82;3.50;;;;;;;;;;5097048;27;20044;-66
2021/12/20 14:09:36;;;;;;;10.05;3.58;;;;;;;;;;5066182;28;20102;-66
2021/12/20 14:12:06;;;;;;;8.98;3.53;;;;;;;;;;5066210;28;20051;-66
2021/12/20 14:14:32;;;;;;;9.50;3.05;;;;;;;;;;5061532;28;20032;-66
2021/12/20 14:17:00;;;;;;;12.15;3.38;;;;;;;;;;5067100;28;20029;-66
2021/12/20 14:19:45;;;;;;;12.05;3.72;;;;;;;;;;5066189;28;20117;-65
2021/12/20 14:22:11;;;;;;;10.32;3.60;;;;;;;;;;5083964;28;20120;-66
2021/12/20 14:24:38;;;;;;;10.75;3.60;;;;;;;;;;5066366;28;20024;-65
2021/12/20 14:27:04;;;;;;;14.80;4.28;;;;;;;;;;5066277;28;20049;-65
2021/12/20 14:29:33;;;;;;;5.45;2.90;;;;;;;;;;5069228;28;20036;-65
2021/12/20 14:32:00;;;;;;;11.27;2.72;;;;;;;;;;5081382;28;20070;-65
2021/12/20 14:34:36;;;;;;;9.73;3.63;;;;;;;;;;5064272;28;20036;-65
2021/12/20 14:37:09;;;;;;;15.20;3.25;;;;;;;;;;5069267;28;20611;-66
2021/12/20 14:39:43;;;;;;;13.40;4.68;;;;;;;;;;5049072;28;20044;-65
2021/12/20 14:42:09;;;;;;;9.75;4.13;;;;;;;;;;5065874;28;20036;-65
2021/12/20 14:44:45;;;;;;;12.95;4.63;;;;;;;;;;5069310;28;20040;-65
2021/12/20 14:47:17;;;;;;;16.83;5.05;;;;;;;;;;5066817;28;20123;-65
2021/12/20 14:49:57;;;;;;;10.18;3.35;;;;;;;;;;5067983;28;20205;-65
2021/12/20 14:52:30;;;;;;;10.30;3.42;;;;;;;;;;5062052;28;20254;-65
2021/12/20 14:54:57;;;;;;;9.63;4.00;;;;;;;;;;5064793;28;20048;-65
2021/12/20 14:57:34;;;;;;;13.30;3.55;;;;;;;;;;5066717;28;20642;-65
2021/12/20 15:00:01;;;;;;;10.75;3.75;;;;;;;;;;5070281;28;20040;-65
2021/12/20 15:02:41;;;;;;;8.70;4.10;;;;;;;;;;5064284;28;20524;-66
2021/12/20 15:05:10;;;;;;;10.93;4.65;;;;;;;;;;5064910;28;20040;-65
2021/12/20 15:07:37;;;;;;;7.35;3.35;;;;;;;;;;5058915;28;20376;-65
2021/12/20 15:10:03;;;;;;;8.98;4.05;;;;;;;;;;5070412;28;20036;-65